sensor_id;sensor_type;location;lat;lon;timestamp;P1;durP1;ratioP1;P2;durP2;ratioP2
66741;SDS011;53654;54.152;19.432;2023-07-16T00:02:10;5.10;;;4.60;;
66741;SDS011;53654;54.152;19.432;2023-07-16T00:04:38;5.20;;;4.70;;
66741;SDS011;53654;54.152;19.432;2023-07-16T00:07:06;5.20;;;4.60;;
66741;SDS011;53654;54.152;19.432;2023-07-16T00:09:34;4.70;;;4.30;;
66741;SDS011;53654;54.152;19.432;2023-07-16T00:12:03;5.10;;;4.60;;
66741;SDS011;53654;54.152;19.432;2023-07-16T00:14:31;5.00;;;4.50;;
66741;SDS011;53654;54.152;19.432;2023-07-16T00:16:59;5.10;;;4.60;;
66741;SDS011;53654;54.152;19.432;2023-07-16T00:19:27;6.30;;;4.50;;
66741;SDS011;53654;54.152;19.432;2023-07-16T00:21:56;5.00;;;4.40;;
66741;SDS011;53654;54.152;19.432;2023-07-16T00:24:24;4.80;;;4.40;;
66741;SDS011;53654;54.152;19.432;2023-07-16T00:26:52;5.20;;;4.70;;
66741;SDS011;53654;54.152;19.432;2023-07-16T00:29:21;5.30;;;4.70;;
66741;SDS011;53654;54.152;19.432;2023-07-16T00:31:50;5.20;;;4.70;;
66741;SDS011;53654;54.152;19.432;2023-07-16T00:34:18;5.30;;;4.80;;
66741;SDS011;53654;54.152;19.432;2023-07-16T00:36:46;5.60;;;5.10;;
66741;SDS011;53654;54.152;19.432;2023-07-16T00:39:14;6.40;;;4.50;;
66741;SDS011;53654;54.152;19.432;2023-07-16T00:41:42;5.00;;;4.60;;
66741;SDS011;53654;54.152;19.432;2023-07-16T00:44:10;5.60;;;4.50;;
66741;SDS011;53654;54.152;19.432;2023-07-16T00:46:39;4.90;;;4.50;;
66741;SDS011;53654;54.152;19.432;2023-07-16T00:49:07;5.20;;;4.70;;
66741;SDS011;53654;54.152;19.432;2023-07-16T00:51:36;5.10;;;4.70;;
66741;SDS011;53654;54.152;19.432;2023-07-16T00:54:04;5.20;;;4.70;;
66741;SDS011;53654;54.152;19.432;2023-07-16T00:56:34;5.20;;;4.70;;
66741;SDS011;53654;54.152;19.432;2023-07-16T00:59:04;5.10;;;4.60;;
66741;SDS011;53654;54.152;19.432;2023-07-16T01:01:33;5.10;;;4.60;;
66741;SDS011;53654;54.152;19.432;2023-07-16T01:04:01;5.40;;;5.00;;
66741;SDS011;53654;54.152;19.432;2023-07-16T01:06:36;5.50;;;4.90;;
66741;SDS011;53654;54.152;19.432;2023-07-16T01:09:17;5.20;;;4.80;;
66741;SDS011;53654;54.152;19.432;2023-07-16T01:11:48;5.20;;;4.80;;
66741;SDS011;53654;54.152;19.432;2023-07-16T01:14:17;5.10;;;4.50;;
66741;SDS011;53654;54.152;19.432;2023-07-16T01:16:46;4.90;;;4.50;;
66741;SDS011;53654;54.152;19.432;2023-07-16T01:19:14;5.10;;;4.70;;
66741;SDS011;53654;54.152;19.432;2023-07-16T01:30:39;5.40;;;4.90;;
66741;SDS011;53654;54.152;19.432;2023-07-16T01:33:13;5.30;;;4.80;;
66741;SDS011;53654;54.152;19.432;2023-07-16T01:35:44;6.40;;;5.10;;
66741;SDS011;53654;54.152;19.432;2023-07-16T01:38:14;5.40;;;4.90;;
66741;SDS011;53654;54.152;19.432;2023-07-16T01:40:45;5.30;;;4.80;;
66741;SDS011;53654;54.152;19.432;2023-07-16T01:43:13;5.00;;;4.70;;
66741;SDS011;53654;54.152;19.432;2023-07-16T01:45:41;5.40;;;4.90;;
66741;SDS011;53654;54.152;19.432;2023-07-16T01:48:13;5.20;;;4.70;;
66741;SDS011;53654;54.152;19.432;2023-07-16T01:50:42;5.30;;;4.90;;
66741;SDS011;53654;54.152;19.432;2023-07-16T01:53:10;5.20;;;4.80;;
66741;SDS011;53654;54.152;19.432;2023-07-16T01:55:38;5.40;;;4.90;;
66741;SDS011;53654;54.152;19.432;2023-07-16T01:58:07;6.10;;;5.00;;
66741;SDS011;53654;54.152;19.432;2023-07-16T02:00:36;5.50;;;4.80;;
66741;SDS011;53654;54.152;19.432;2023-07-16T02:03:04;5.20;;;4.80;;
66741;SDS011;53654;54.152;19.432;2023-07-16T02:05:33;5.40;;;4.90;;
66741;SDS011;53654;54.152;19.432;2023-07-16T02:08:01;5.60;;;5.00;;
66741;SDS011;53654;54.152;19.432;2023-07-16T02:10:33;5.20;;;4.80;;
66741;SDS011;53654;54.152;19.432;2023-07-16T02:13:01;5.30;;;4.90;;
66741;SDS011;53654;54.152;19.432;2023-07-16T02:15:29;5.30;;;4.90;;
66741;SDS011;53654;54.152;19.432;2023-07-16T02:17:57;5.60;;;5.10;;
66741;SDS011;53654;54.152;19.432;2023-07-16T02:20:25;5.50;;;5.00;;
66741;SDS011;53654;54.152;19.432;2023-07-16T02:22:53;5.80;;;5.00;;
66741;SDS011;53654;54.152;19.432;2023-07-16T02:25:21;5.50;;;5.10;;
66741;SDS011;53654;54.152;19.432;2023-07-16T02:27:50;5.30;;;4.80;;
66741;SDS011;53654;54.152;19.432;2023-07-16T02:30:18;5.40;;;4.90;;
66741;SDS011;53654;54.152;19.432;2023-07-16T02:32:46;5.50;;;5.00;;
66741;SDS011;53654;54.152;19.432;2023-07-16T02:35:14;5.30;;;4.90;;
66741;SDS011;53654;54.152;19.432;2023-07-16T02:37:43;5.90;;;5.30;;
66741;SDS011;53654;54.152;19.432;2023-07-16T02:40:11;5.60;;;5.10;;
66741;SDS011;53654;54.152;19.432;2023-07-16T02:42:42;5.90;;;5.30;;
66741;SDS011;53654;54.152;19.432;2023-07-16T02:45:10;5.60;;;5.10;;
66741;SDS011;53654;54.152;19.432;2023-07-16T02:47:38;5.80;;;4.90;;
66741;SDS011;53654;54.152;19.432;2023-07-16T02:50:06;5.80;;;5.10;;
66741;SDS011;53654;54.152;19.432;2023-07-16T02:52:35;5.90;;;5.30;;
66741;SDS011;53654;54.152;19.432;2023-07-16T02:55:03;6.00;;;5.50;;
66741;SDS011;53654;54.152;19.432;2023-07-16T02:57:32;5.70;;;5.20;;
66741;SDS011;53654;54.152;19.432;2023-07-16T03:00:00;5.70;;;5.20;;
66741;SDS011;53654;54.152;19.432;2023-07-16T03:02:28;5.20;;;4.80;;
66741;SDS011;53654;54.152;19.432;2023-07-16T03:04:57;5.50;;;5.00;;
66741;SDS011;53654;54.152;19.432;2023-07-16T03:07:25;5.70;;;5.20;;
66741;SDS011;53654;54.152;19.432;2023-07-16T03:09:53;5.50;;;5.00;;
66741;SDS011;53654;54.152;19.432;2023-07-16T03:12:22;5.30;;;4.90;;
66741;SDS011;53654;54.152;19.432;2023-07-16T03:14:50;5.60;;;5.20;;
66741;SDS011;53654;54.152;19.432;2023-07-16T03:17:22;5.60;;;5.10;;
66741;SDS011;53654;54.152;19.432;2023-07-16T03:19:50;5.60;;;5.10;;
66741;SDS011;53654;54.152;19.432;2023-07-16T03:22:18;5.70;;;4.90;;
66741;SDS011;53654;54.152;19.432;2023-07-16T03:24:46;5.60;;;5.10;;
66741;SDS011;53654;54.152;19.432;2023-07-16T03:27:14;5.30;;;4.80;;
66741;SDS011;53654;54.152;19.432;2023-07-16T03:29:46;5.50;;;4.80;;
66741;SDS011;53654;54.152;19.432;2023-07-16T03:32:14;5.30;;;4.90;;
66741;SDS011;53654;54.152;19.432;2023-07-16T03:34:43;5.40;;;4.90;;
66741;SDS011;53654;54.152;19.432;2023-07-16T03:37:11;5.10;;;4.70;;
66741;SDS011;53654;54.152;19.432;2023-07-16T03:39:39;5.70;;;5.10;;
66741;SDS011;53654;54.152;19.432;2023-07-16T03:42:07;5.50;;;5.00;;
66741;SDS011;53654;54.152;19.432;2023-07-16T03:44:35;5.50;;;5.00;;
66741;SDS011;53654;54.152;19.432;2023-07-16T03:47:04;5.10;;;4.70;;
66741;SDS011;53654;54.152;19.432;2023-07-16T03:49:32;5.30;;;4.80;;
66741;SDS011;53654;54.152;19.432;2023-07-16T03:52:00;5.40;;;5.00;;
66741;SDS011;53654;54.152;19.432;2023-07-16T03:54:28;5.20;;;4.70;;
66741;SDS011;53654;54.152;19.432;2023-07-16T03:56:56;5.50;;;5.10;;
66741;SDS011;53654;54.152;19.432;2023-07-16T03:59:25;5.30;;;4.90;;
66741;SDS011;53654;54.152;19.432;2023-07-16T04:01:53;5.40;;;4.80;;
66741;SDS011;53654;54.152;19.432;2023-07-16T04:04:21;5.30;;;4.80;;
66741;SDS011;53654;54.152;19.432;2023-07-16T04:06:49;5.10;;;4.70;;
66741;SDS011;53654;54.152;19.432;2023-07-16T04:09:17;4.80;;;4.40;;
66741;SDS011;53654;54.152;19.432;2023-07-16T04:11:45;5.10;;;4.70;;
66741;SDS011;53654;54.152;19.432;2023-07-16T04:14:14;5.30;;;4.80;;
66741;SDS011;53654;54.152;19.432;2023-07-16T04:16:42;5.10;;;4.70;;
66741;SDS011;53654;54.152;19.432;2023-07-16T04:19:10;5.30;;;4.60;;
66741;SDS011;53654;54.152;19.432;2023-07-16T04:21:38;4.90;;;4.50;;
66741;SDS011;53654;54.152;19.432;2023-07-16T04:24:07;5.20;;;4.80;;
66741;SDS011;53654;54.152;19.432;2023-07-16T04:26:35;5.40;;;5.00;;
66741;SDS011;53654;54.152;19.432;2023-07-16T04:29:03;5.00;;;4.60;;
66741;SDS011;53654;54.152;19.432;2023-07-16T04:31:31;5.00;;;4.50;;
66741;SDS011;53654;54.152;19.432;2023-07-16T04:33:59;5.00;;;4.60;;
66741;SDS011;53654;54.152;19.432;2023-07-16T04:36:27;4.90;;;4.50;;
66741;SDS011;53654;54.152;19.432;2023-07-16T04:38:56;4.90;;;4.50;;
66741;SDS011;53654;54.152;19.432;2023-07-16T04:41:24;5.30;;;4.70;;
66741;SDS011;53654;54.152;19.432;2023-07-16T04:43:52;5.00;;;4.60;;
66741;SDS011;53654;54.152;19.432;2023-07-16T04:46:20;5.00;;;4.60;;
66741;SDS011;53654;54.152;19.432;2023-07-16T04:48:48;5.20;;;4.70;;
66741;SDS011;53654;54.152;19.432;2023-07-16T04:51:16;5.10;;;4.60;;
66741;SDS011;53654;54.152;19.432;2023-07-16T04:53:45;5.00;;;4.60;;
66741;SDS011;53654;54.152;19.432;2023-07-16T04:56:13;5.30;;;4.80;;
66741;SDS011;53654;54.152;19.432;2023-07-16T04:58:43;5.10;;;4.60;;
66741;SDS011;53654;54.152;19.432;2023-07-16T05:01:11;4.80;;;4.40;;
66741;SDS011;53654;54.152;19.432;2023-07-16T05:03:39;5.10;;;4.80;;
66741;SDS011;53654;54.152;19.432;2023-07-16T05:06:08;5.10;;;4.70;;
66741;SDS011;53654;54.152;19.432;2023-07-16T05:08:37;5.50;;;4.90;;
66741;SDS011;53654;54.152;19.432;2023-07-16T05:11:05;5.00;;;4.60;;
66741;SDS011;53654;54.152;19.432;2023-07-16T05:13:33;5.30;;;4.80;;
66741;SDS011;53654;54.152;19.432;2023-07-16T05:16:01;5.80;;;4.90;;
66741;SDS011;53654;54.152;19.432;2023-07-16T05:18:30;5.20;;;4.80;;
66741;SDS011;53654;54.152;19.432;2023-07-16T05:20:58;5.30;;;4.80;;
66741;SDS011;53654;54.152;19.432;2023-07-16T05:23:26;5.30;;;4.80;;
66741;SDS011;53654;54.152;19.432;2023-07-16T05:25:55;5.40;;;4.90;;
66741;SDS011;53654;54.152;19.432;2023-07-16T05:28:24;5.70;;;5.20;;
66741;SDS011;53654;54.152;19.432;2023-07-16T05:30:59;5.40;;;4.90;;
66741;SDS011;53654;54.152;19.432;2023-07-16T05:33:28;5.30;;;4.90;;
66741;SDS011;53654;54.152;19.432;2023-07-16T05:35:56;5.50;;;4.80;;
66741;SDS011;53654;54.152;19.432;2023-07-16T05:38:24;5.40;;;4.90;;
66741;SDS011;53654;54.152;19.432;2023-07-16T05:40:52;5.50;;;5.00;;
66741;SDS011;53654;54.152;19.432;2023-07-16T05:43:20;5.20;;;4.70;;
66741;SDS011;53654;54.152;19.432;2023-07-16T05:45:48;5.90;;;5.40;;
66741;SDS011;53654;54.152;19.432;2023-07-16T05:48:16;5.60;;;5.10;;
66741;SDS011;53654;54.152;19.432;2023-07-16T05:50:45;5.30;;;4.90;;
66741;SDS011;53654;54.152;19.432;2023-07-16T05:53:13;6.00;;;5.50;;
66741;SDS011;53654;54.152;19.432;2023-07-16T05:55:41;5.60;;;5.10;;
66741;SDS011;53654;54.152;19.432;2023-07-16T05:58:09;5.80;;;5.30;;
66741;SDS011;53654;54.152;19.432;2023-07-16T06:00:37;5.80;;;5.20;;
66741;SDS011;53654;54.152;19.432;2023-07-16T06:03:07;5.60;;;5.20;;
66741;SDS011;53654;54.152;19.432;2023-07-16T06:05:35;5.60;;;5.20;;
66741;SDS011;53654;54.152;19.432;2023-07-16T06:08:04;5.80;;;5.30;;
66741;SDS011;53654;54.152;19.432;2023-07-16T06:10:33;5.60;;;5.20;;
66741;SDS011;53654;54.152;19.432;2023-07-16T06:13:02;5.90;;;5.30;;
66741;SDS011;53654;54.152;19.432;2023-07-16T06:15:30;6.00;;;5.40;;
66741;SDS011;53654;54.152;19.432;2023-07-16T06:17:58;5.30;;;4.90;;
66741;SDS011;53654;54.152;19.432;2023-07-16T06:20:27;5.40;;;4.90;;
66741;SDS011;53654;54.152;19.432;2023-07-16T06:22:56;5.40;;;4.90;;
66741;SDS011;53654;54.152;19.432;2023-07-16T06:25:24;5.50;;;5.10;;
66741;SDS011;53654;54.152;19.432;2023-07-16T06:27:53;5.30;;;4.90;;
66741;SDS011;53654;54.152;19.432;2023-07-16T06:30:21;5.00;;;4.60;;
66741;SDS011;53654;54.152;19.432;2023-07-16T06:32:49;5.50;;;5.10;;
66741;SDS011;53654;54.152;19.432;2023-07-16T06:35:17;5.60;;;5.10;;
66741;SDS011;53654;54.152;19.432;2023-07-16T06:37:46;5.70;;;5.20;;
66741;SDS011;53654;54.152;19.432;2023-07-16T06:40:15;5.30;;;5.00;;
66741;SDS011;53654;54.152;19.432;2023-07-16T06:42:43;6.50;;;5.40;;
66741;SDS011;53654;54.152;19.432;2023-07-16T06:45:11;5.70;;;5.10;;
66741;SDS011;53654;54.152;19.432;2023-07-16T06:47:39;5.70;;;5.20;;
66741;SDS011;53654;54.152;19.432;2023-07-16T06:50:07;5.60;;;5.10;;
66741;SDS011;53654;54.152;19.432;2023-07-16T06:52:36;7.70;;;4.70;;
66741;SDS011;53654;54.152;19.432;2023-07-16T06:55:04;5.30;;;4.80;;
66741;SDS011;53654;54.152;19.432;2023-07-16T06:57:32;5.80;;;5.30;;
66741;SDS011;53654;54.152;19.432;2023-07-16T07:00:00;5.70;;;5.20;;
66741;SDS011;53654;54.152;19.432;2023-07-16T07:02:29;5.50;;;5.10;;
66741;SDS011;53654;54.152;19.432;2023-07-16T07:04:57;5.70;;;5.30;;
66741;SDS011;53654;54.152;19.432;2023-07-16T07:07:26;5.70;;;5.30;;
66741;SDS011;53654;54.152;19.432;2023-07-16T07:09:54;5.50;;;5.10;;
66741;SDS011;53654;54.152;19.432;2023-07-16T07:12:22;5.90;;;5.40;;
66741;SDS011;53654;54.152;19.432;2023-07-16T07:14:50;5.70;;;5.20;;
66741;SDS011;53654;54.152;19.432;2023-07-16T07:17:18;5.60;;;5.20;;
66741;SDS011;53654;54.152;19.432;2023-07-16T07:19:46;6.10;;;5.40;;
66741;SDS011;53654;54.152;19.432;2023-07-16T07:22:15;6.10;;;5.50;;
66741;SDS011;53654;54.152;19.432;2023-07-16T07:24:43;5.70;;;5.20;;
66741;SDS011;53654;54.152;19.432;2023-07-16T07:27:12;6.20;;;5.60;;
66741;SDS011;53654;54.152;19.432;2023-07-16T07:29:40;5.40;;;5.00;;
66741;SDS011;53654;54.152;19.432;2023-07-16T07:32:09;6.10;;;5.50;;
66741;SDS011;53654;54.152;19.432;2023-07-16T07:34:38;5.70;;;5.20;;
66741;SDS011;53654;54.152;19.432;2023-07-16T07:37:06;5.30;;;4.90;;
66741;SDS011;53654;54.152;19.432;2023-07-16T07:39:35;5.10;;;4.80;;
66741;SDS011;53654;54.152;19.432;2023-07-16T07:42:03;6.00;;;5.50;;
66741;SDS011;53654;54.152;19.432;2023-07-16T07:44:32;6.10;;;5.10;;
66741;SDS011;53654;54.152;19.432;2023-07-16T07:47:00;5.40;;;5.00;;
66741;SDS011;53654;54.152;19.432;2023-07-16T07:49:28;4.70;;;4.40;;
66741;SDS011;53654;54.152;19.432;2023-07-16T07:51:57;5.40;;;5.00;;
66741;SDS011;53654;54.152;19.432;2023-07-16T07:54:25;5.90;;;5.30;;
66741;SDS011;53654;54.152;19.432;2023-07-16T07:56:53;5.30;;;4.90;;
66741;SDS011;53654;54.152;19.432;2023-07-16T07:59:24;5.20;;;4.80;;
66741;SDS011;53654;54.152;19.432;2023-07-16T08:01:52;5.70;;;5.30;;
66741;SDS011;53654;54.152;19.432;2023-07-16T08:04:20;5.30;;;4.90;;
66741;SDS011;53654;54.152;19.432;2023-07-16T08:06:49;5.50;;;5.00;;
66741;SDS011;53654;54.152;19.432;2023-07-16T08:09:18;5.40;;;5.00;;
66741;SDS011;53654;54.152;19.432;2023-07-16T08:11:46;5.50;;;5.00;;
66741;SDS011;53654;54.152;19.432;2023-07-16T08:14:14;5.50;;;5.10;;
66741;SDS011;53654;54.152;19.432;2023-07-16T08:16:42;5.80;;;5.40;;
66741;SDS011;53654;54.152;19.432;2023-07-16T08:19:11;5.60;;;5.10;;
66741;SDS011;53654;54.152;19.432;2023-07-16T08:21:39;6.10;;;5.60;;
66741;SDS011;53654;54.152;19.432;2023-07-16T08:24:07;6.20;;;5.70;;
66741;SDS011;53654;54.152;19.432;2023-07-16T08:26:35;5.90;;;5.40;;
66741;SDS011;53654;54.152;19.432;2023-07-16T08:29:03;6.10;;;5.50;;
66741;SDS011;53654;54.152;19.432;2023-07-16T08:31:34;6.60;;;5.50;;
66741;SDS011;53654;54.152;19.432;2023-07-16T08:34:02;5.60;;;5.10;;
66741;SDS011;53654;54.152;19.432;2023-07-16T08:36:32;5.40;;;5.00;;
66741;SDS011;53654;54.152;19.432;2023-07-16T08:39:00;5.60;;;5.20;;
66741;SDS011;53654;54.152;19.432;2023-07-16T08:41:29;5.80;;;5.40;;
66741;SDS011;53654;54.152;19.432;2023-07-16T08:43:58;5.70;;;5.30;;
66741;SDS011;53654;54.152;19.432;2023-07-16T08:46:26;6.10;;;5.60;;
66741;SDS011;53654;54.152;19.432;2023-07-16T08:48:54;6.40;;;5.80;;
66741;SDS011;53654;54.152;19.432;2023-07-16T08:51:22;6.60;;;5.70;;
66741;SDS011;53654;54.152;19.432;2023-07-16T08:53:52;5.60;;;5.20;;
66741;SDS011;53654;54.152;19.432;2023-07-16T08:56:20;6.30;;;5.70;;
66741;SDS011;53654;54.152;19.432;2023-07-16T08:58:48;6.30;;;7.10;;
66741;SDS011;53654;54.152;19.432;2023-07-16T09:01:16;7.00;;;6.30;;
66741;SDS011;53654;54.152;19.432;2023-07-16T09:03:50;5.60;;;5.30;;
66741;SDS011;53654;54.152;19.432;2023-07-16T09:06:18;6.60;;;6.10;;
66741;SDS011;53654;54.152;19.432;2023-07-16T09:08:47;5.60;;;5.10;;
66741;SDS011;53654;54.152;19.432;2023-07-16T09:11:15;6.40;;;5.90;;
66741;SDS011;53654;54.152;19.432;2023-07-16T09:13:49;6.60;;;6.00;;
66741;SDS011;53654;54.152;19.432;2023-07-16T09:16:18;5.30;;;4.90;;
66741;SDS011;53654;54.152;19.432;2023-07-16T09:18:48;6.40;;;5.90;;
66741;SDS011;53654;54.152;19.432;2023-07-16T09:21:16;6.20;;;5.80;;
66741;SDS011;53654;54.152;19.432;2023-07-16T09:23:44;6.40;;;5.90;;
66741;SDS011;53654;54.152;19.432;2023-07-16T09:26:13;6.00;;;5.50;;
66741;SDS011;53654;54.152;19.432;2023-07-16T09:28:42;6.10;;;5.60;;
66741;SDS011;53654;54.152;19.432;2023-07-16T09:31:10;6.10;;;5.60;;
66741;SDS011;53654;54.152;19.432;2023-07-16T09:33:39;5.60;;;5.20;;
66741;SDS011;53654;54.152;19.432;2023-07-16T09:36:08;6.30;;;5.80;;
66741;SDS011;53654;54.152;19.432;2023-07-16T09:38:36;5.80;;;5.40;;
66741;SDS011;53654;54.152;19.432;2023-07-16T09:41:04;4.60;;;4.30;;
66741;SDS011;53654;54.152;19.432;2023-07-16T09:43:34;5.80;;;5.20;;
66741;SDS011;53654;54.152;19.432;2023-07-16T09:46:03;5.50;;;5.10;;
66741;SDS011;53654;54.152;19.432;2023-07-16T09:48:31;5.90;;;5.20;;
66741;SDS011;53654;54.152;19.432;2023-07-16T09:51:00;5.70;;;5.20;;
66741;SDS011;53654;54.152;19.432;2023-07-16T09:53:28;6.40;;;4.80;;
66741;SDS011;53654;54.152;19.432;2023-07-16T09:56:00;5.00;;;4.60;;
66741;SDS011;53654;54.152;19.432;2023-07-16T09:58:32;4.90;;;4.60;;
66741;SDS011;53654;54.152;19.432;2023-07-16T10:01:00;4.90;;;7.70;;
66741;SDS011;53654;54.152;19.432;2023-07-16T10:03:30;5.80;;;4.70;;
66741;SDS011;53654;54.152;19.432;2023-07-16T10:06:07;4.90;;;4.60;;
66741;SDS011;53654;54.152;19.432;2023-07-16T10:08:36;4.60;;;4.20;;
66741;SDS011;53654;54.152;19.432;2023-07-16T10:11:14;5.10;;;4.70;;
66741;SDS011;53654;54.152;19.432;2023-07-16T10:13:50;4.80;;;4.50;;
66741;SDS011;53654;54.152;19.432;2023-07-16T10:16:19;4.80;;;4.40;;
66741;SDS011;53654;54.152;19.432;2023-07-16T10:18:50;4.60;;;4.30;;
66741;SDS011;53654;54.152;19.432;2023-07-16T10:21:24;5.10;;;4.70;;
66741;SDS011;53654;54.152;19.432;2023-07-16T10:23:57;4.70;;;4.40;;
66741;SDS011;53654;54.152;19.432;2023-07-16T10:26:27;4.80;;;4.40;;
66741;SDS011;53654;54.152;19.432;2023-07-16T10:28:57;4.50;;;4.10;;
66741;SDS011;53654;54.152;19.432;2023-07-16T10:31:25;4.50;;;4.10;;
66741;SDS011;53654;54.152;19.432;2023-07-16T10:34:01;4.50;;;4.20;;
66741;SDS011;53654;54.152;19.432;2023-07-16T10:36:39;6.10;;;5.50;;
66741;SDS011;53654;54.152;19.432;2023-07-16T10:39:08;6.50;;;6.00;;
66741;SDS011;53654;54.152;19.432;2023-07-16T10:41:36;6.40;;;5.90;;
66741;SDS011;53654;54.152;19.432;2023-07-16T10:44:05;5.80;;;5.20;;
66741;SDS011;53654;54.152;19.432;2023-07-16T10:46:36;6.00;;;5.60;;
66741;SDS011;53654;54.152;19.432;2023-07-16T10:49:04;5.60;;;5.30;;
66741;SDS011;53654;54.152;19.432;2023-07-16T10:51:32;6.70;;;6.10;;
66741;SDS011;53654;54.152;19.432;2023-07-16T10:54:01;6.30;;;5.80;;
66741;SDS011;53654;54.152;19.432;2023-07-16T10:56:35;6.30;;;5.80;;
66741;SDS011;53654;54.152;19.432;2023-07-16T10:59:04;6.20;;;5.70;;
66741;SDS011;53654;54.152;19.432;2023-07-16T11:01:33;6.30;;;5.80;;
66741;SDS011;53654;54.152;19.432;2023-07-16T11:04:01;6.50;;;6.00;;
66741;SDS011;53654;54.152;19.432;2023-07-16T11:06:29;5.80;;;5.40;;
66741;SDS011;53654;54.152;19.432;2023-07-16T11:09:05;5.50;;;5.10;;
66741;SDS011;53654;54.152;19.432;2023-07-16T11:11:34;6.00;;;5.50;;
66741;SDS011;53654;54.152;19.432;2023-07-16T11:14:06;5.70;;;5.20;;
66741;SDS011;53654;54.152;19.432;2023-07-16T11:16:35;5.50;;;5.10;;
66741;SDS011;53654;54.152;19.432;2023-07-16T11:19:05;5.80;;;5.30;;
66741;SDS011;53654;54.152;19.432;2023-07-16T11:21:34;5.70;;;5.20;;
66741;SDS011;53654;54.152;19.432;2023-07-16T11:24:09;5.40;;;4.90;;
66741;SDS011;53654;54.152;19.432;2023-07-16T11:26:51;5.40;;;4.90;;
66741;SDS011;53654;54.152;19.432;2023-07-16T11:29:20;5.10;;;4.70;;
66741;SDS011;53654;54.152;19.432;2023-07-16T11:31:49;5.20;;;4.70;;
66741;SDS011;53654;54.152;19.432;2023-07-16T11:34:20;5.10;;;4.60;;
66741;SDS011;53654;54.152;19.432;2023-07-16T11:36:49;4.90;;;4.50;;
66741;SDS011;53654;54.152;19.432;2023-07-16T11:39:18;5.10;;;4.70;;
66741;SDS011;53654;54.152;19.432;2023-07-16T11:41:55;5.00;;;4.60;;
66741;SDS011;53654;54.152;19.432;2023-07-16T11:44:26;4.90;;;4.50;;
66741;SDS011;53654;54.152;19.432;2023-07-16T11:47:00;5.00;;;4.60;;
66741;SDS011;53654;54.152;19.432;2023-07-16T11:49:29;5.40;;;5.00;;
66741;SDS011;53654;54.152;19.432;2023-07-16T11:51:58;5.50;;;4.90;;
66741;SDS011;53654;54.152;19.432;2023-07-16T11:54:27;5.30;;;4.80;;
66741;SDS011;53654;54.152;19.432;2023-07-16T11:56:55;5.30;;;4.90;;
66741;SDS011;53654;54.152;19.432;2023-07-16T11:59:23;5.40;;;5.00;;
66741;SDS011;53654;54.152;19.432;2023-07-16T12:01:51;5.40;;;4.90;;
66741;SDS011;53654;54.152;19.432;2023-07-16T12:04:20;5.10;;;4.60;;
66741;SDS011;53654;54.152;19.432;2023-07-16T12:06:48;5.10;;;4.30;;
66741;SDS011;53654;54.152;19.432;2023-07-16T12:09:16;5.00;;;4.60;;
66741;SDS011;53654;54.152;19.432;2023-07-16T12:11:44;5.50;;;4.80;;
66741;SDS011;53654;54.152;19.432;2023-07-16T12:14:12;5.30;;;4.90;;
66741;SDS011;53654;54.152;19.432;2023-07-16T12:16:40;5.50;;;5.00;;
66741;SDS011;53654;54.152;19.432;2023-07-16T12:19:09;5.60;;;5.10;;
66741;SDS011;53654;54.152;19.432;2023-07-16T12:21:38;5.30;;;5.00;;
66741;SDS011;53654;54.152;19.432;2023-07-16T12:24:06;4.90;;;4.50;;
66741;SDS011;53654;54.152;19.432;2023-07-16T12:26:34;5.00;;;4.60;;
66741;SDS011;53654;54.152;19.432;2023-07-16T12:29:02;5.20;;;4.70;;
66741;SDS011;53654;54.152;19.432;2023-07-16T12:31:31;4.90;;;4.60;;
66741;SDS011;53654;54.152;19.432;2023-07-16T12:34:00;5.20;;;4.80;;
66741;SDS011;53654;54.152;19.432;2023-07-16T12:36:31;6.00;;;4.80;;
66741;SDS011;53654;54.152;19.432;2023-07-16T12:39:00;4.70;;;4.30;;
66741;SDS011;53654;54.152;19.432;2023-07-16T12:41:28;4.30;;;3.90;;
66741;SDS011;53654;54.152;19.432;2023-07-16T12:43:56;4.00;;;3.70;;
66741;SDS011;53654;54.152;19.432;2023-07-16T12:46:24;4.20;;;3.80;;
66741;SDS011;53654;54.152;19.432;2023-07-16T12:48:52;4.00;;;3.70;;
66741;SDS011;53654;54.152;19.432;2023-07-16T12:51:20;3.70;;;3.40;;
66741;SDS011;53654;54.152;19.432;2023-07-16T12:53:48;3.90;;;3.40;;
66741;SDS011;53654;54.152;19.432;2023-07-16T12:56:17;3.90;;;3.60;;
66741;SDS011;53654;54.152;19.432;2023-07-16T12:58:47;3.80;;;3.50;;
66741;SDS011;53654;54.152;19.432;2023-07-16T13:01:15;4.60;;;3.20;;
66741;SDS011;53654;54.152;19.432;2023-07-16T13:03:44;3.70;;;3.30;;
66741;SDS011;53654;54.152;19.432;2023-07-16T13:06:12;3.70;;;3.10;;
66741;SDS011;53654;54.152;19.432;2023-07-16T13:08:41;3.30;;;3.10;;
66741;SDS011;53654;54.152;19.432;2023-07-16T13:11:09;3.30;;;2.70;;
66741;SDS011;53654;54.152;19.432;2023-07-16T13:13:38;3.20;;;2.90;;
66741;SDS011;53654;54.152;19.432;2023-07-16T13:16:06;4.10;;;3.00;;
66741;SDS011;53654;54.152;19.432;2023-07-16T13:18:34;4.80;;;2.90;;
66741;SDS011;53654;54.152;19.432;2023-07-16T13:21:02;3.30;;;2.90;;
66741;SDS011;53654;54.152;19.432;2023-07-16T13:23:31;4.00;;;3.00;;
66741;SDS011;53654;54.152;19.432;2023-07-16T13:25:59;3.10;;;2.80;;
66741;SDS011;53654;54.152;19.432;2023-07-16T13:28:27;3.70;;;3.20;;
66741;SDS011;53654;54.152;19.432;2023-07-16T13:30:55;3.60;;;3.20;;
66741;SDS011;53654;54.152;19.432;2023-07-16T13:33:24;3.90;;;2.90;;
66741;SDS011;53654;54.152;19.432;2023-07-16T13:35:52;4.00;;;3.30;;
66741;SDS011;53654;54.152;19.432;2023-07-16T13:38:20;3.90;;;3.60;;
66741;SDS011;53654;54.152;19.432;2023-07-16T13:40:48;3.90;;;3.30;;
66741;SDS011;53654;54.152;19.432;2023-07-16T13:43:16;4.60;;;3.40;;
66741;SDS011;53654;54.152;19.432;2023-07-16T13:45:44;3.40;;;3.10;;
66741;SDS011;53654;54.152;19.432;2023-07-16T13:48:12;3.70;;;3.10;;
66741;SDS011;53654;54.152;19.432;2023-07-16T13:50:40;4.10;;;3.40;;
66741;SDS011;53654;54.152;19.432;2023-07-16T13:53:08;3.50;;;3.20;;
66741;SDS011;53654;54.152;19.432;2023-07-16T13:55:37;4.00;;;3.00;;
66741;SDS011;53654;54.152;19.432;2023-07-16T13:58:05;3.40;;;3.00;;
66741;SDS011;53654;54.152;19.432;2023-07-16T14:00:33;3.40;;;3.10;;
66741;SDS011;53654;54.152;19.432;2023-07-16T14:03:01;3.80;;;3.20;;
66741;SDS011;53654;54.152;19.432;2023-07-16T14:05:29;3.90;;;3.20;;
66741;SDS011;53654;54.152;19.432;2023-07-16T14:07:58;4.50;;;3.40;;
66741;SDS011;53654;54.152;19.432;2023-07-16T14:10:26;3.70;;;3.30;;
66741;SDS011;53654;54.152;19.432;2023-07-16T14:12:54;3.70;;;3.40;;
66741;SDS011;53654;54.152;19.432;2023-07-16T14:15:22;3.60;;;3.00;;
66741;SDS011;53654;54.152;19.432;2023-07-16T14:17:50;3.60;;;3.30;;
66741;SDS011;53654;54.152;19.432;2023-07-16T14:20:19;3.60;;;3.20;;
66741;SDS011;53654;54.152;19.432;2023-07-16T14:22:47;4.00;;;3.40;;
66741;SDS011;53654;54.152;19.432;2023-07-16T14:25:15;4.00;;;3.30;;
66741;SDS011;53654;54.152;19.432;2023-07-16T14:27:43;3.30;;;3.10;;
66741;SDS011;53654;54.152;19.432;2023-07-16T14:30:11;4.30;;;5.30;;
66741;SDS011;53654;54.152;19.432;2023-07-16T14:32:39;4.40;;;3.40;;
66741;SDS011;53654;54.152;19.432;2023-07-16T14:35:08;3.90;;;3.40;;
66741;SDS011;53654;54.152;19.432;2023-07-16T14:37:56;3.40;;;3.10;;
66741;SDS011;53654;54.152;19.432;2023-07-16T14:40:25;3.60;;;3.30;;
66741;SDS011;53654;54.152;19.432;2023-07-16T14:42:53;3.70;;;3.40;;
66741;SDS011;53654;54.152;19.432;2023-07-16T14:45:21;3.50;;;3.20;;
66741;SDS011;53654;54.152;19.432;2023-07-16T14:47:50;3.90;;;3.50;;
66741;SDS011;53654;54.152;19.432;2023-07-16T14:50:18;3.50;;;3.20;;
66741;SDS011;53654;54.152;19.432;2023-07-16T14:52:46;4.70;;;3.40;;